createdAt,value
2022-08-03T00:01:09.807Z,1014
2022-08-03T00:04:10.047Z,1014
2022-08-03T00:07:10.307Z,1014
2022-08-03T00:10:10.528Z,1013.9
2022-08-03T00:13:10.759Z,1013.9
2022-08-03T00:16:11.001Z,1013.9
2022-08-03T00:19:06.220Z,1013.9
2022-08-03T00:22:06.451Z,1013.9
2022-08-03T00:25:06.689Z,1013.9
2022-08-03T00:28:08.726Z,1013.9
2022-08-03T00:31:07.393Z,1013.9
2022-08-03T00:34:07.417Z,1013.9
2022-08-03T00:37:07.693Z,1013.9
2022-08-03T00:40:07.938Z,1013.9
2022-08-03T00:43:08.135Z,1013.9
2022-08-03T00:46:08.499Z,1013.9
2022-08-03T00:49:08.765Z,1013.8
2022-08-03T00:52:09.952Z,1013.8
2022-08-03T00:55:09.085Z,1013.8
2022-08-03T00:58:09.357Z,1013.8
2022-08-03T01:01:09.727Z,1013.8
2022-08-03T01:04:09.815Z,1013.8
2022-08-03T01:07:11.297Z,1013.8
2022-08-03T01:10:10.300Z,1013.8
2022-08-03T01:14:18.380Z,1013.8
2022-08-03T01:16:10.763Z,1013.8
2022-08-03T01:19:11.006Z,1013.8
2022-08-03T01:22:06.218Z,1013.8
2022-08-03T01:25:06.461Z,1013.8
2022-08-03T01:28:06.709Z,1013.8
2022-08-03T01:31:06.949Z,1013.8
2022-08-03T01:34:14.878Z,1013.8
2022-08-03T01:37:07.437Z,1013.7
2022-08-03T01:40:07.719Z,1013.7
2022-08-03T01:43:07.910Z,1013.7
2022-08-03T01:46:08.169Z,1013.7
2022-08-03T01:49:09.792Z,1013.7
2022-08-03T01:52:08.668Z,1013.7
2022-08-03T01:55:09.062Z,1013.7
2022-08-03T01:58:09.126Z,1013.7
2022-08-03T02:01:09.555Z,1013.7
2022-08-03T02:04:09.605Z,1013.7
2022-08-03T02:07:09.818Z,1013.7
2022-08-03T02:10:10.080Z,1013.7
2022-08-03T02:13:10.322Z,1013.6
2022-08-03T02:16:10.554Z,1013.6
2022-08-03T02:19:10.796Z,1013.6
2022-08-03T02:22:11.327Z,1013.6
2022-08-03T02:25:11.266Z,1013.6
2022-08-03T02:28:06.504Z,1013.5
2022-08-03T02:31:06.729Z,1013.5
2022-08-03T02:34:06.971Z,1013.5
2022-08-03T02:37:07.224Z,1013.5
2022-08-03T02:40:07.486Z,1013.5
2022-08-03T02:43:07.705Z,1013.5
2022-08-03T02:46:07.984Z,1013.5
2022-08-03T02:49:52.297Z,1013.5
2022-08-03T02:52:13.422Z,1013.5
2022-08-03T02:55:08.669Z,1013.4
2022-08-03T02:58:08.903Z,1013.4
2022-08-03T03:01:09.261Z,1013.4
2022-08-03T03:04:09.410Z,1013.4
2022-08-03T03:07:10.402Z,1013.4
2022-08-03T03:10:09.929Z,1013.4
2022-08-03T03:13:10.160Z,1013.4
2022-08-03T03:16:10.371Z,1013.4
2022-08-03T03:19:10.588Z,1013.4
2022-08-03T03:22:10.843Z,1013.4
2022-08-03T03:25:11.090Z,1013.4
2022-08-03T03:28:06.763Z,1013.4
2022-08-03T03:31:11.579Z,1013.4
2022-08-03T03:34:06.885Z,1013.4
2022-08-03T03:37:07.028Z,1013.4
2022-08-03T03:40:07.287Z,1013.4
2022-08-03T03:43:07.526Z,1013.4
2022-08-03T03:46:07.823Z,1013.4
2022-08-03T03:49:08.178Z,1013.4
2022-08-03T03:52:08.247Z,1013.4
2022-08-03T03:55:08.480Z,1013.4
2022-08-03T03:58:08.761Z,1013.4
2022-08-03T04:01:09.116Z,1013.4
2022-08-03T04:04:09.190Z,1013.4
2022-08-03T04:07:09.423Z,1013.4
2022-08-03T04:10:15.173Z,1013.4
2022-08-03T04:13:09.911Z,1013.4
2022-08-03T04:16:10.177Z,1013.4
2022-08-03T04:19:10.407Z,1013.4
2022-08-03T04:22:10.780Z,1013.4
2022-08-03T04:25:05.847Z,1013.4
2022-08-03T04:28:32.113Z,1013.4
2022-08-03T04:31:06.329Z,1013.4
2022-08-03T04:34:06.580Z,1013.4
2022-08-03T04:37:08.030Z,1013.4
2022-08-03T04:40:07.086Z,1013.4
2022-08-03T04:43:07.322Z,1013.4
2022-08-03T04:46:07.584Z,1013.4
2022-08-03T04:49:08.087Z,1013.4
2022-08-03T04:52:08.076Z,1013.4
2022-08-03T04:55:08.258Z,1013.4
2022-08-03T04:58:08.529Z,1013.4
2022-08-03T05:01:08.833Z,1013.5
2022-08-03T05:04:08.978Z,1013.5
2022-08-03T05:07:12.710Z,1013.5
2022-08-03T05:10:17.378Z,1013.5
2022-08-03T05:13:09.713Z,1013.5
2022-08-03T05:16:09.890Z,1013.5
2022-08-03T05:19:10.112Z,1013.5
2022-08-03T05:22:10.477Z,1013.5
2022-08-03T05:25:23.336Z,1013.5
2022-08-03T05:28:10.831Z,1013.6
2022-08-03T05:31:11.057Z,1013.6
2022-08-03T05:34:11.328Z,1013.6
2022-08-03T05:37:06.555Z,1013.6
2022-08-03T05:40:06.791Z,1013.6
2022-08-03T05:43:07.049Z,1013.6
2022-08-03T05:46:13.482Z,1013.6
2022-08-03T05:49:07.732Z,1013.6
2022-08-03T05:52:16.593Z,1013.6
2022-08-03T05:55:07.944Z,1013.6
2022-08-03T05:58:10.172Z,1013.5
2022-08-03T06:01:08.733Z,1013.5
2022-08-03T06:04:08.705Z,1013.5
2022-08-03T06:07:08.909Z,1013.5
2022-08-03T06:10:38.551Z,1013.5
2022-08-03T06:13:09.422Z,1013.5
2022-08-03T06:16:09.675Z,1013.5
2022-08-03T06:19:09.895Z,1013.5
2022-08-03T06:22:10.408Z,1013.5
2022-08-03T06:25:13.138Z,1013.5
2022-08-03T06:28:52.711Z,1013.5
2022-08-03T06:31:10.870Z,1013.5
2022-08-03T06:34:35.889Z,1013.6
2022-08-03T06:37:06.307Z,1013.6
2022-08-03T06:40:06.557Z,1013.6
2022-08-03T06:43:13.005Z,1013.6
2022-08-03T06:46:07.039Z,1013.6
2022-08-03T06:49:07.549Z,1013.6
2022-08-03T06:52:07.542Z,1013.6
2022-08-03T06:55:07.774Z,1013.6
2022-08-03T06:58:08.017Z,1013.6
2022-08-03T07:01:08.407Z,1013.6
2022-08-03T07:04:08.491Z,1013.6
2022-08-03T07:07:09.210Z,1013.6
2022-08-03T07:10:08.978Z,1013.6
2022-08-03T07:13:09.209Z,1013.6
2022-08-03T07:16:09.496Z,1013.6
2022-08-03T07:19:09.709Z,1013.7
2022-08-03T07:22:09.956Z,1013.7
2022-08-03T07:25:10.178Z,1013.7
2022-08-03T07:28:10.438Z,1013.7
2022-08-03T07:31:10.594Z,1013.7
2022-08-03T07:34:10.913Z,1013.8
2022-08-03T07:37:06.041Z,1013.8
2022-08-03T07:40:06.293Z,1013.8
2022-08-03T07:43:06.524Z,1013.8
2022-08-03T07:46:06.777Z,1013.8
2022-08-03T07:49:07.160Z,1013.8
2022-08-03T07:52:07.258Z,1013.8
2022-08-03T07:55:07.508Z,1013.8
2022-08-03T07:58:07.791Z,1013.8
2022-08-03T08:01:09.465Z,1013.8
2022-08-03T08:04:08.227Z,1013.8
2022-08-03T08:07:08.772Z,1013.7
2022-08-03T08:10:08.692Z,1013.7
2022-08-03T08:13:08.942Z,1013.7
2022-08-03T08:16:09.196Z,1013.7
2022-08-03T08:19:12.917Z,1013.7
2022-08-03T08:22:11.654Z,1013.7
2022-08-03T08:25:09.953Z,1013.7
2022-08-03T08:28:33.810Z,1013.7
2022-08-03T08:31:10.389Z,1013.6
2022-08-03T08:34:10.633Z,1013.6
2022-08-03T08:37:10.854Z,1013.6
2022-08-03T08:40:06.077Z,1013.6
2022-08-03T08:43:07.865Z,1013.6
2022-08-03T08:46:06.552Z,1013.6
2022-08-03T08:49:07.503Z,1013.6
2022-08-03T08:52:30.081Z,1013.6
2022-08-03T08:55:07.571Z,1013.6
2022-08-03T08:58:08.148Z,1013.6
2022-08-03T09:01:07.918Z,1013.7
2022-08-03T09:04:08.311Z,1013.7
2022-08-03T09:07:20.903Z,1013.7
2022-08-03T09:10:13.788Z,1013.7
2022-08-03T09:13:09.791Z,1013.7
2022-08-03T09:16:09.224Z,1013.7
2022-08-03T09:19:09.213Z,1013.7
2022-08-03T09:22:09.682Z,1013.7
2022-08-03T09:25:25.425Z,1013.7
2022-08-03T09:28:10.917Z,1013.7
2022-08-03T09:31:10.693Z,1013.7
2022-08-03T09:34:10.436Z,1013.7
2022-08-03T09:37:10.659Z,1013.7
2022-08-03T09:40:11.419Z,1013.7
2022-08-03T09:43:06.124Z,1013.7
2022-08-03T09:46:11.768Z,1013.7
2022-08-03T09:49:13.978Z,1013.7
2022-08-03T09:52:49.857Z,1013.7
2022-08-03T09:56:37.294Z,1013.7
2022-08-03T09:58:07.620Z,1013.7
2022-08-03T10:01:25.457Z,1013.6
2022-08-03T10:04:07.611Z,1013.6
2022-08-03T10:07:07.846Z,1013.6
2022-08-03T10:10:32.477Z,1013.6
2022-08-03T10:13:08.315Z,1013.6
2022-08-03T10:16:25.974Z,1013.6
2022-08-03T10:19:08.790Z,1013.6
2022-08-03T10:22:09.035Z,1013.6
2022-08-03T10:25:09.267Z,1013.5
2022-08-03T10:28:09.518Z,1013.5
2022-08-03T10:31:09.753Z,1013.5
2022-08-03T10:34:10.005Z,1013.5
2022-08-03T10:37:10.228Z,1013.5
2022-08-03T10:40:16.206Z,1013.5
2022-08-03T10:43:10.714Z,1013.5
2022-08-03T10:46:10.986Z,1013.4
2022-08-03T10:49:06.383Z,1013.4
2022-08-03T10:52:36.072Z,1013.4
2022-08-03T10:55:10.061Z,1013.4
2022-08-03T10:58:11.424Z,1013.4
2022-08-03T11:01:07.266Z,1013.4
2022-08-03T11:04:16.878Z,1013.4
2022-08-03T11:07:07.533Z,1013.4
2022-08-03T11:10:10.843Z,1013.4
2022-08-03T11:13:08.027Z,1013.4
2022-08-03T11:16:21.484Z,1013.4
2022-08-03T11:19:08.519Z,1013.4
2022-08-03T11:22:08.777Z,1013.4
2022-08-03T11:25:55.460Z,1013.4
2022-08-03T11:28:09.674Z,1013.4
2022-08-03T11:31:48.512Z,1013.4
2022-08-03T11:34:09.737Z,1013.4
2022-08-03T11:37:09.960Z,1013.4
2022-08-03T11:40:15.208Z,1013.4
2022-08-03T11:43:10.447Z,1013.4
2022-08-03T11:46:10.677Z,1013.4
2022-08-03T11:49:11.617Z,1013.4
2022-08-03T11:52:11.152Z,1013.4
2022-08-03T11:55:06.363Z,1013.4
2022-08-03T11:59:22.513Z,1013.3
2022-08-03T12:01:11.861Z,1013.3
2022-08-03T12:04:07.139Z,1013.3
2022-08-03T12:07:07.355Z,1013.3
2022-08-03T12:10:07.827Z,1013.3
2022-08-03T12:14:52.337Z,1013.3
2022-08-03T12:16:08.074Z,1013.3
2022-08-03T12:19:08.321Z,1013.3
2022-08-03T12:22:08.544Z,1013.2
2022-08-03T12:25:08.770Z,1013.2
2022-08-03T12:28:38.951Z,1013.2
2022-08-03T12:31:09.379Z,1013.2
2022-08-03T12:34:09.503Z,1013.2
2022-08-03T12:37:23.369Z,1013.1
2022-08-03T12:40:15.102Z,1013.1
2022-08-03T12:43:10.215Z,1013.1
2022-08-03T12:46:10.424Z,1013.1
2022-08-03T12:49:10.794Z,1013.1
2022-08-03T12:52:10.914Z,1013.1
2022-08-03T12:55:11.222Z,1013.1
2022-08-03T12:58:06.352Z,1013.1
2022-08-03T13:01:13.932Z,1013.1
2022-08-03T13:04:06.875Z,1013.1
2022-08-03T13:07:14.711Z,1013.1
2022-08-03T13:10:08.594Z,1013.1
2022-08-03T13:13:07.566Z,1013.1
2022-08-03T13:16:07.811Z,1013.1
2022-08-03T13:19:16.187Z,1013.1
2022-08-03T13:22:08.280Z,1013.1
2022-08-03T13:25:08.561Z,1013.1
2022-08-03T13:28:14.719Z,1013.1
2022-08-03T13:31:09.014Z,1013.1
2022-08-03T13:34:09.213Z,1013.1
2022-08-03T13:37:10.515Z,1013.1
2022-08-03T13:40:11.986Z,1013.1
2022-08-03T13:43:09.939Z,1013
2022-08-03T13:46:10.175Z,1013
2022-08-03T13:49:10.428Z,1013
2022-08-03T13:52:10.646Z,1013
2022-08-03T13:55:11.115Z,1013
2022-08-03T13:58:07.802Z,1013
2022-08-03T14:01:11.562Z,1013
2022-08-03T14:04:22.388Z,1013
2022-08-03T14:07:11.932Z,1013
2022-08-03T14:10:07.114Z,1012.9
2022-08-03T14:13:07.361Z,1012.9
2022-08-03T14:16:10.212Z,1012.9
2022-08-03T14:19:08.394Z,1012.9
2022-08-03T14:22:08.025Z,1012.9
2022-08-03T14:25:10.313Z,1012.8
2022-08-03T14:28:08.486Z,1012.8
2022-08-03T14:32:13.619Z,1012.8
2022-08-03T14:34:08.961Z,1012.8
2022-08-03T14:37:09.141Z,1012.8
2022-08-03T14:40:09.519Z,1012.8
2022-08-03T14:43:09.618Z,1012.8
2022-08-03T14:46:09.865Z,1012.8
2022-08-03T14:50:44.224Z,1012.8
2022-08-03T14:52:10.340Z,1012.8
2022-08-03T14:55:10.571Z,1012.8
2022-08-03T14:58:21.978Z,1012.8
2022-08-03T15:02:11.005Z,1012.7
2022-08-03T15:04:06.322Z,1012.7
2022-08-03T15:07:06.530Z,1012.7
2022-08-03T15:10:06.790Z,1012.7
2022-08-03T15:13:07.067Z,1012.6
2022-08-03T15:16:11.346Z,1012.6
2022-08-03T15:20:27.750Z,1012.6
2022-08-03T15:21:50.553Z,1012.6
2022-08-03T15:26:39.298Z,1012.6
2022-08-03T15:28:07.561Z,1012.6
2022-08-03T15:31:07.858Z,1012.6
2022-08-03T15:34:08.021Z,1012.6
2022-08-03T15:37:16.919Z,1012.6
2022-08-03T15:40:08.518Z,1012.5
2022-08-03T15:43:08.753Z,1012.5
2022-08-03T15:46:30.073Z,1012.5
2022-08-03T15:49:09.226Z,1012.5
2022-08-03T15:52:09.548Z,1012.5
2022-08-03T15:55:17.281Z,1012.5
2022-08-03T15:59:14.021Z,1012.5
2022-08-03T16:01:10.472Z,1012.5
2022-08-03T16:04:10.410Z,1012.5
2022-08-03T16:07:18.137Z,1012.5
2022-08-03T16:10:10.822Z,1012.5
2022-08-03T16:13:11.031Z,1012.5
2022-08-03T16:16:11.257Z,1012.5
2022-08-03T16:19:06.525Z,1012.5
2022-08-03T16:22:07.031Z,1012.5
2022-08-03T16:25:16.528Z,1012.5
2022-08-03T16:28:14.678Z,1012.4
2022-08-03T16:31:07.459Z,1012.4
2022-08-03T16:34:07.921Z,1012.4
2022-08-03T16:37:39.010Z,1012.4
2022-08-03T16:40:19.490Z,1012.5
2022-08-03T16:43:19.272Z,1012.5
2022-08-03T16:46:08.657Z,1012.5
2022-08-03T16:49:08.889Z,1012.5
2022-08-03T16:52:13.287Z,1012.5
2022-08-03T16:55:09.407Z,1012.5
2022-08-03T16:58:12.918Z,1012.5
2022-08-03T17:01:25.169Z,1012.5
2022-08-03T17:04:13.548Z,1012.5
2022-08-03T17:07:12.975Z,1012.5
2022-08-03T17:10:10.554Z,1012.5
2022-08-03T17:13:10.951Z,1012.5
2022-08-03T17:16:08.073Z,1012.6
2022-08-03T17:19:06.307Z,1012.6
2022-08-03T17:22:06.589Z,1012.6
2022-08-03T17:25:07.976Z,1012.6
2022-08-03T17:28:58.104Z,1012.6
2022-08-03T17:31:31.290Z,1012.6
2022-08-03T17:34:07.472Z,1012.6
2022-08-03T17:37:58.406Z,1012.6
2022-08-03T17:40:08.164Z,1012.6
2022-08-03T17:44:33.005Z,1012.6
2022-08-03T17:46:12.108Z,1012.6
2022-08-03T17:49:25.373Z,1012.6
2022-08-03T17:52:17.751Z,1012.6
2022-08-03T17:56:04.094Z,1012.6
2022-08-03T17:58:11.438Z,1012.6
2022-08-03T18:02:11.621Z,1012.6
2022-08-03T18:04:11.954Z,1012.6
2022-08-03T18:07:12.712Z,1012.6
2022-08-03T18:10:15.909Z,1012.6
2022-08-03T18:13:11.122Z,1012.6
2022-08-03T18:16:10.659Z,1012.6
2022-08-03T18:19:14.576Z,1012.6
2022-08-03T18:22:06.511Z,1012.6
2022-08-03T18:28:06.747Z,1012.7
2022-08-03T18:31:07.779Z,1012.7
2022-08-03T18:34:33.297Z,1012.7
2022-08-03T18:40:07.685Z,1012.7
2022-08-03T18:40:07.748Z,1012.7
2022-08-03T18:43:09.123Z,1012.7
2022-08-03T18:46:07.978Z,1012.7
2022-08-03T18:49:11.613Z,1012.7
2022-08-03T18:52:12.729Z,1012.7
2022-08-03T18:52:28.002Z,1012.7
2022-08-03T18:55:32.897Z,1012.7
2022-08-03T18:58:18.143Z,1012.8
2022-08-03T19:02:03.991Z,1012.8
2022-08-03T19:04:09.896Z,1012.8
2022-08-03T19:07:11.410Z,1012.8
2022-08-03T19:10:09.926Z,1012.9
2022-08-03T19:13:14.206Z,1012.9
2022-08-03T19:16:13.113Z,1012.9
2022-08-03T19:19:14.744Z,1012.9
2022-08-03T19:22:10.782Z,1013
2022-08-03T19:25:12.343Z,1013
2022-08-03T19:28:07.566Z,1013
2022-08-03T19:31:11.192Z,1013
2022-08-03T19:34:08.001Z,1013
2022-08-03T19:37:06.963Z,1013
2022-08-03T19:40:12.435Z,1013.1
2022-08-03T19:43:09.770Z,1013.1
2022-08-03T19:46:08.779Z,1013.1
2022-08-03T19:49:16.105Z,1013.1
2022-08-03T19:52:08.145Z,1013.1
2022-08-03T19:55:12.730Z,1013.1
2022-08-03T19:58:28.378Z,1013.1
2022-08-03T20:01:21.715Z,1013.1
2022-08-03T20:04:09.313Z,1013.2
2022-08-03T20:07:09.387Z,1013.2
2022-08-03T20:10:09.572Z,1013.2
2022-08-03T20:13:09.826Z,1013.2
2022-08-03T20:16:11.808Z,1013.2
2022-08-03T20:19:14.778Z,1013.2
2022-08-03T20:22:14.776Z,1013.2
2022-08-03T20:25:05.753Z,1013.3
2022-08-03T20:28:15.210Z,1013.3
2022-08-03T20:31:11.264Z,1013.3
2022-08-03T20:40:06.935Z,1013.4
2022-08-03T20:43:07.751Z,1013.4
2022-08-03T20:49:07.688Z,1013.4
2022-08-03T20:52:19.320Z,1013.5
2022-08-03T20:55:14.927Z,1013.5
2022-08-03T20:58:08.403Z,1013.5
2022-08-03T21:01:09.285Z,1013.5
2022-08-03T21:04:09.761Z,1013.5
2022-08-03T21:07:16.986Z,1013.5
2022-08-03T21:10:10.378Z,1013.6
2022-08-03T21:13:18.850Z,1013.6
2022-08-03T21:16:15.409Z,1013.6
2022-08-03T21:19:10.047Z,1013.6
2022-08-03T21:22:10.304Z,1013.7
2022-08-03T21:25:10.535Z,1013.7
2022-08-03T21:28:10.776Z,1013.7
2022-08-03T21:31:11.640Z,1013.7
2022-08-03T21:34:06.234Z,1013.7
2022-08-03T21:37:06.467Z,1013.7
2022-08-03T21:40:06.726Z,1013.7
2022-08-03T21:43:08.325Z,1013.7
2022-08-03T21:46:07.194Z,1013.7
2022-08-03T21:50:09.820Z,1013.7
2022-08-03T21:52:07.738Z,1013.6
2022-08-03T21:55:07.929Z,1013.6
2022-08-03T21:58:08.175Z,1013.7
2022-08-03T22:01:10.158Z,1013.7
2022-08-03T22:04:53.395Z,1013.7
2022-08-03T22:07:08.906Z,1013.7
2022-08-03T22:10:09.169Z,1013.7
2022-08-03T22:13:09.382Z,1013.7
2022-08-03T22:16:09.642Z,1013.7
2022-08-03T22:19:09.848Z,1013.7
2022-08-03T22:22:10.085Z,1013.7
2022-08-03T22:25:10.335Z,1013.7
2022-08-03T22:28:10.563Z,1013.8
2022-08-03T22:31:59.458Z,1013.8
2022-08-03T22:34:11.020Z,1013.8
2022-08-03T22:37:06.270Z,1013.8
2022-08-03T22:40:06.538Z,1013.8
2022-08-03T22:43:06.735Z,1013.8
2022-08-03T22:46:18.843Z,1013.8
2022-08-03T22:49:07.359Z,1013.8
2022-08-03T22:52:07.530Z,1013.8
2022-08-03T22:55:07.736Z,1013.8
2022-08-03T22:58:07.975Z,1013.8
2022-08-03T23:01:08.212Z,1013.8
2022-08-03T23:04:08.763Z,1013.9
2022-08-03T23:07:08.686Z,1013.9
2022-08-03T23:10:08.942Z,1013.9
2022-08-03T23:13:09.152Z,1013.9
2022-08-03T23:16:09.417Z,1013.9
2022-08-03T23:19:26.037Z,1013.9
2022-08-03T23:22:30.895Z,1013.9
2022-08-03T23:25:10.115Z,1013.9
2022-08-03T23:28:10.368Z,1013.9
2022-08-03T23:31:12.186Z,1013.9
2022-08-03T23:34:17.004Z,1013.9
2022-08-03T23:37:06.071Z,1013.9
2022-08-03T23:40:06.337Z,1013.9
2022-08-03T23:43:06.554Z,1013.9
2022-08-03T23:46:06.799Z,1013.9
2022-08-03T23:49:07.035Z,1013.9
2022-08-03T23:52:07.315Z,1013.9
2022-08-03T23:55:07.512Z,1013.9
2022-08-03T23:58:11.353Z,1013.9
